Time;durP1;ratioP1;P1;durP2;ratioP2;P2;SDS_P1;SDS_P2;PMS_P1;PMS_P2;Temp;Humidity;BMP_temperature;BMP_pressure;BME280_temperature;BME280_humidity;BME280_pressure;Samples;Min_cycle;Max_cycle;Signal;HPM_P1;HPM_P2
2023/02/06 00:01:46;;;;;;;0.10;0.10;;;;;;;7.30;69.14;104482.44;5093162;28;20036;-86
2023/02/06 00:04:12;;;;;;;0.10;0.10;;;;;;;7.28;68.73;104481.47;5087677;28;20036;-85
2023/02/06 00:06:39;;;;;;;0.60;0.60;;;;;;;7.24;69.09;104482.13;5096303;28;20115;-84
2023/02/06 00:09:06;;;;;;;0.10;0.10;;;;;;;7.26;68.90;104483.13;5100219;28;20040;-85
2023/02/06 00:11:33;;;;;;;0.20;0.20;;;;;;;7.26;68.82;104483.13;5111163;28;20015;-87
2023/02/06 00:13:59;;;;;;;0.77;0.77;;;;;;;7.27;69.18;104482.31;5108009;28;20028;-84
2023/02/06 00:16:28;;;;;;;0.10;0.10;;;;;;;7.28;68.80;104478.84;5085934;28;20024;-84
2023/02/06 00:18:55;;;;;;;0.10;0.10;;;;;;;7.28;68.63;104481.47;5082534;28;20028;-84
2023/02/06 00:21:23;;;;;;;0.10;0.10;;;;;;;7.23;69.24;104472.44;5080589;28;20035;-84
2023/02/06 00:23:52;;;;;;;0.00;0.00;;;;;;;7.20;68.86;104461.69;5081324;28;20149;-84
2023/02/06 00:26:18;;;;;;;0.10;0.10;;;;;;;7.20;69.49;104459.06;5082552;28;20029;-84
2023/02/06 00:28:45;;;;;;;0.10;0.10;;;;;;;7.18;69.25;104458.06;5086935;28;20493;-84
2023/02/06 00:31:12;;;;;;;0.10;0.10;;;;;;;7.15;69.32;104455.28;5083010;28;20431;-83
2023/02/06 00:33:38;;;;;;;0.10;0.10;;;;;;;7.18;69.33;104455.44;5090966;28;20025;-84
2023/02/06 00:36:05;;;;;;;4.03;2.65;;;;;;;7.18;69.08;104455.44;5103070;28;20096;-84
2023/02/06 00:38:32;;;;;;;0.10;0.10;;;;;;;7.18;69.81;104459.00;5094502;28;20044;-84
2023/02/06 00:40:58;;;;;;;0.10;0.10;;;;;;;7.16;69.55;104463.25;5100174;28;20016;-84
2023/02/06 00:43:24;;;;;;;0.10;0.10;;;;;;;7.20;68.98;104467.91;5095309;28;20102;-84
2023/02/06 00:45:53;;;;;;;0.13;0.13;;;;;;;7.20;69.35;104464.34;5094885;28;20028;-85
2023/02/06 00:48:20;;;;;;;0.10;0.10;;;;;;;7.21;69.46;104455.59;5076079;28;20035;-84
2023/02/06 00:50:48;;;;;;;0.10;0.10;;;;;;;7.21;69.30;104456.50;5095984;28;20531;-85
2023/02/06 00:53:14;;;;;;;0.10;0.10;;;;;;;7.21;69.12;104460.88;5094380;28;20024;-85
2023/02/06 00:55:40;;;;;;;0.10;0.10;;;;;;;7.20;69.38;104460.00;5094812;28;20512;-85
2023/02/06 00:58:07;;;;;;;0.10;0.10;;;;;;;7.22;69.46;104457.41;5095224;28;20016;-85
2023/02/06 01:00:33;;;;;;;0.10;0.10;;;;;;;7.21;69.68;104458.25;5076007;28;20035;-82
2023/02/06 01:02:59;;;;;;;0.10;0.10;;;;;;;7.22;69.49;104465.34;5093138;28;20106;-82
2023/02/06 01:05:25;;;;;;;0.25;0.25;;;;;;;7.22;69.35;104460.06;5101724;28;20099;-82
2023/02/06 01:07:52;;;;;;;0.10;0.10;;;;;;;7.20;69.56;104462.63;5103150;28;20017;-81
2023/02/06 01:10:18;;;;;;;5.15;2.75;;;;;;;7.21;69.46;104455.59;5093098;28;20020;-85
2023/02/06 01:12:44;;;;;;;0.10;0.10;;;;;;;7.20;69.49;104451.16;5084745;28;20020;-85
2023/02/06 01:15:13;;;;;;;0.10;0.10;;;;;;;7.20;69.48;104456.44;5086725;28;20031;-85
2023/02/06 01:17:40;;;;;;;0.40;0.40;;;;;;;7.21;69.61;104466.16;5091385;28;20040;-87
2023/02/06 01:20:10;;;;;;;0.10;0.10;;;;;;;7.24;69.26;104471.56;5094142;28;20016;-85
2023/02/06 01:22:37;;;;;;;0.10;0.10;;;;;;;7.26;69.35;104475.22;5085140;28;20024;-88
2023/02/06 01:25:04;;;;;;;0.10;0.10;;;;;;;7.25;69.01;104468.13;5084903;28;20503;-85
2023/02/06 01:27:30;;;;;;;0.10;0.10;;;;;;;7.27;69.02;104474.38;5093453;28;20078;-87
2023/02/06 01:29:56;;;;;;;0.30;0.30;;;;;;;7.28;69.40;104473.56;5091444;28;20082;-85
2023/02/06 01:32:23;;;;;;;0.10;0.10;;;;;;;7.26;69.42;104473.50;5112429;28;20017;-87
2023/02/06 01:34:52;;;;;;;0.10;0.10;;;;;;;7.27;69.57;104469.13;5112541;28;20024;-88
2023/02/06 01:37:18;;;;;;;0.10;0.10;;;;;;;7.26;69.28;104481.41;5099238;28;20016;-86
2023/02/06 01:39:44;;;;;;;0.10;0.10;;;;;;;7.26;69.32;104476.13;5098652;28;20512;-85
2023/02/06 01:42:12;;;;;;;0.10;0.10;;;;;;;7.28;69.42;104478.84;5091624;28;20028;-88
2023/02/06 01:44:38;;;;;;;0.10;0.10;;;;;;;7.29;68.79;104480.66;5093722;28;20021;-86
2023/02/06 01:47:05;;;;;;;0.10;0.10;;;;;;;7.30;68.75;104482.44;5095186;28;20020;-85
2023/02/06 01:49:42;;;;;;;0.10;0.10;;;;;;;7.32;68.85;104464.09;5090918;28;20055;-86
2023/02/06 01:54:49;;;;;;;0.10;0.10;;;;;;;7.31;69.41;104457.88;5094472;27;20352;-83
2023/02/06 01:57:17;;;;;;;0.10;0.10;;;;;;;7.31;69.02;104463.16;5085077;28;20028;-84
2023/02/06 01:59:50;;;;;;;0.13;0.13;;;;;;;7.31;69.42;104454.34;5080552;28;20020;-81
2023/02/06 02:02:16;;;;;;;0.20;0.20;;;;;;;7.28;68.93;104457.75;5079708;28;20043;-81
2023/02/06 02:04:43;;;;;;;0.10;0.10;;;;;;;7.27;68.71;104458.56;5082489;28;20047;-82
2023/02/06 02:07:22;;;;;;;0.08;0.08;;;;;;;7.30;68.82;104458.72;5081877;28;20028;-83
2023/02/06 02:09:49;;;;;;;0.10;0.10;;;;;;;7.23;68.57;104460.13;5087532;28;20049;-84
2023/02/06 02:12:15;;;;;;;0.10;0.10;;;;;;;7.22;68.92;104449.50;5093130;28;20032;-83
2023/02/06 02:14:44;;;;;;;0.17;0.17;;;;;;;7.18;68.84;104440.53;5098794;28;20031;-82
2023/02/06 02:22:59;;;;;;;0.10;0.10;;;;;;;7.06;69.22;104432.88;5083442;27;1172518;-82
2023/02/06 02:31:33;;;;;;;0.10;0.10;;;;;;;7.01;68.86;104429.09;5061009;28;20408;-82
2023/02/06 02:34:34;;;;;;;0.30;0.30;;;;;;;7.00;69.00;104429.00;5042994;28;20412;-82
2023/02/06 02:37:27;;;;;;;0.10;0.10;;;;;;;6.98;69.36;104431.56;5046069;28;20567;-82
2023/02/06 02:40:26;;;;;;;0.10;0.10;;;;;;;6.96;69.24;104427.94;5045770;28;20396;-82
2023/02/06 02:43:26;;;;;;;0.20;0.20;;;;;;;6.92;69.19;104421.59;5040114;28;20391;-82
2023/02/06 02:48:41;;;;;;;0.20;0.20;;;;;;;6.84;69.48;104429.94;5069855;28;20411;-82
2023/02/06 02:51:08;;;;;;;0.10;0.10;;;;;;;6.84;69.15;104429.94;5058587;28;20073;-83
2023/02/06 02:53:35;;;;;;;0.22;0.22;;;;;;;6.84;69.50;104429.94;5056789;28;20048;-82
2023/02/06 02:56:01;;;;;;;0.47;0.47;;;;;;;6.81;69.20;104417.50;5051900;28;20048;-82
2023/02/06 02:58:32;;;;;;;0.10;0.10;;;;;;;6.82;69.12;104421.00;5047708;28;20396;-82
2023/02/06 03:01:06;;;;;;;1.00;1.00;;;;;;;6.82;69.37;104428.94;5049755;28;20022;-83
2023/02/06 03:03:37;;;;;;;0.20;0.20;;;;;;;6.80;69.32;104426.22;5052461;28;20044;-82
2023/02/06 03:09:06;;;;;;;0.10;0.10;;;;;;;6.75;69.33;104426.00;5105395;27;1166068;-83
2023/02/06 03:11:35;;;;;;;0.10;0.10;;;;;;;6.70;69.39;104418.66;5116182;27;20122;-82
2023/02/06 03:14:08;;;;;;;0.10;0.10;;;;;;;6.70;69.33;104419.53;5124420;28;20057;-82
2023/02/06 03:16:40;;;;;;;0.10;0.10;;;;;;;6.71;69.52;104415.19;5125207;28;20024;-80
2023/02/06 03:19:14;;;;;;;1.08;0.65;;;;;;;6.73;69.29;104419.72;5148003;28;20094;-80
2023/02/06 03:21:42;;;;;;;0.10;0.10;;;;;;;6.70;69.47;104408.09;5131521;28;20020;-84
2023/02/06 03:24:14;;;;;;;0.10;0.10;;;;;;;6.72;69.70;104412.63;5124571;28;20479;-82
2023/02/06 03:26:42;;;;;;;0.20;0.20;;;;;;;6.70;69.95;104413.38;5123511;27;20038;-82
2023/02/06 03:29:11;;;;;;;0.10;0.10;;;;;;;6.69;69.79;104423.03;5121703;28;20404;-83
2023/02/06 03:31:44;;;;;;;0.20;0.20;;;;;;;6.69;69.86;104427.38;5122258;27;20028;-82
2023/02/06 03:34:13;;;;;;;;;;;;;;;6.82;69.59;104434.19;5124961;27;20443;-84
2023/02/06 03:36:39;;;;;;;0.10;0.10;;;;;;;6.70;69.25;104424.81;5121326;28;20329;-84
2023/02/06 03:39:06;;;;;;;0.10;0.10;;;;;;;6.67;69.38;104419.38;5120783;28;20333;-83
2023/02/06 03:41:36;;;;;;;0.10;0.10;;;;;;;6.69;69.36;104411.56;5117718;28;20414;-83
2023/02/06 03:44:07;;;;;;;0.13;0.13;;;;;;;6.67;69.44;104424.66;5125454;28;20454;-81
2023/02/06 03:46:36;;;;;;;0.15;0.15;;;;;;;6.61;69.61;104424.31;5114806;28;20036;-83
2023/02/06 03:49:06;;;;;;;0.20;0.20;;;;;;;6.57;69.83;104425.00;5120979;28;20069;-81
2023/02/06 03:51:39;;;;;;;0.10;0.10;;;;;;;6.53;69.84;104430.91;5135205;28;20023;-81
2023/02/06 03:54:07;;;;;;;0.10;0.10;;;;;;;6.45;69.83;104425.22;5138919;28;20035;-80
2023/02/06 03:56:38;;;;;;;0.10;0.10;;;;;;;6.39;69.68;104432.78;5126359;28;20506;-81
2023/02/06 03:59:05;;;;;;;0.03;0.03;;;;;;;6.31;69.86;104435.88;5113298;28;20031;-81
2023/02/06 04:01:32;;;;;;;0.10;0.10;;;;;;;6.28;69.50;104441.00;5113037;28;20034;-82
2023/02/06 04:03:58;;;;;;;0.10;0.10;;;;;;;6.25;69.43;104432.91;5112017;28;20036;-82
2023/02/06 04:06:24;;;;;;;0.10;0.10;;;;;;;6.20;69.77;104430.84;5111952;28;20059;-82
2023/02/06 04:08:51;;;;;;;0.10;0.10;;;;;;;6.20;69.66;104436.13;5112468;28;20067;-81
2023/02/06 04:11:17;;;;;;;0.10;0.10;;;;;;;6.21;69.88;104437.94;5118868;27;20051;-82
2023/02/06 04:13:43;;;;;;;0.10;0.10;;;;;;;6.21;69.71;104432.69;5116352;28;20046;-82
2023/02/06 04:16:09;;;;;;;0.10;0.10;;;;;;;6.20;69.85;104431.75;5112854;28;20035;-82
2023/02/06 04:18:35;;;;;;;0.10;0.10;;;;;;;6.22;69.90;104421.28;5106790;28;20024;-82
2023/02/06 04:21:04;;;;;;;0.10;0.10;;;;;;;6.25;69.87;104421.50;5098060;28;20024;-83
2023/02/06 04:23:30;;;;;;;0.10;0.10;;;;;;;6.24;69.95;104431.13;5101349;28;20437;-82
2023/02/06 04:25:56;;;;;;;0.10;0.10;;;;;;;6.24;70.27;104433.75;5086900;28;20024;-81
2023/02/06 04:28:22;;;;;;;0.13;0.13;;;;;;;6.25;70.17;104432.03;5096571;28;20313;-81
2023/02/06 04:30:48;;;;;;;0.65;0.65;;;;;;;6.26;70.15;104429.47;5096682;28;20126;-82
2023/02/06 04:33:14;;;;;;;0.10;0.10;;;;;;;6.25;70.06;104429.38;5098675;28;20441;-81
2023/02/06 04:35:40;;;;;;;0.10;0.10;;;;;;;6.24;69.95;104433.75;5098427;28;20554;-84
2023/02/06 04:38:06;;;;;;;0.10;0.10;;;;;;;6.23;70.30;104439.84;5107392;28;20023;-81
2023/02/06 04:40:32;;;;;;;0.10;0.10;;;;;;;6.23;70.32;104431.94;5116917;28;20036;-80
2023/02/06 04:42:59;;;;;;;0.10;0.10;;;;;;;6.23;70.23;104444.19;5121904;28;20102;-82
2023/02/06 04:45:25;;;;;;;0.10;0.10;;;;;;;6.19;70.07;104448.38;5123677;28;20409;-83
2023/02/06 04:47:51;;;;;;;0.10;0.10;;;;;;;6.20;69.96;104441.41;5114497;28;20032;-83
2023/02/06 04:50:18;;;;;;;0.10;0.10;;;;;;;6.16;70.16;104440.31;5106787;28;20028;-83
2023/02/06 04:52:44;;;;;;;0.10;0.10;;;;;;;6.14;70.48;104442.88;5120818;28;20028;-79
2023/02/06 04:55:10;;;;;;;0.10;0.10;;;;;;;6.11;70.76;104440.03;5139651;28;20061;-82
2023/02/06 04:57:36;;;;;;;0.20;0.20;;;;;;;6.11;70.50;104437.41;5119771;28;20032;-83
2023/02/06 05:00:05;;;;;;;0.10;0.10;;;;;;;6.07;70.33;104429.25;5105376;28;20031;-84
2023/02/06 05:02:38;;;;;;;0.10;0.10;;;;;;;6.04;70.34;104432.59;5118139;28;20039;-83
2023/02/06 05:05:05;;;;;;;0.10;0.10;;;;;;;6.01;70.32;104421.91;5111518;28;20034;-83
2023/02/06 05:07:31;;;;;;;0.10;0.10;;;;;;;5.99;70.27;104415.66;5110868;28;20027;-82
2023/02/06 05:09:57;;;;;;;0.10;0.10;;;;;;;5.96;70.16;104415.47;5105792;28;20031;-82
2023/02/06 05:12:24;;;;;;;0.10;0.10;;;;;;;5.94;70.15;104414.47;5113049;28;20039;-83
2023/02/06 05:14:50;;;;;;;0.10;0.10;;;;;;;5.90;70.45;104417.75;5107772;28;20054;-82
2023/02/06 05:17:16;;;;;;;0.10;0.10;;;;;;;5.88;70.64;104416.75;5105314;28;20055;-82
2023/02/06 05:19:42;;;;;;;0.10;0.10;;;;;;;5.88;70.54;104424.63;5107973;28;20418;-82
2023/02/06 05:22:08;;;;;;;0.10;0.10;;;;;;;5.85;70.72;104427.09;5116754;28;20032;-82
2023/02/06 05:24:34;;;;;;;0.10;0.10;;;;;;;5.82;70.92;104423.47;5117383;28;20020;-82
2023/02/06 05:27:00;;;;;;;0.10;0.10;;;;;;;5.80;70.78;104419.84;5124447;28;20047;-80
2023/02/06 05:29:26;;;;;;;0.10;0.10;;;;;;;5.79;70.81;104428.53;5124630;28;20030;-79
2023/02/06 05:31:52;;;;;;;0.10;0.10;;;;;;;5.76;71.87;104433.63;5123585;28;20019;-81
2023/02/06 05:34:18;;;;;;;0.10;0.10;;;;;;;5.80;71.32;104440.88;5109207;28;20059;-82
2023/02/06 05:36:44;;;;;;;0.10;0.10;;;;;;;5.79;70.96;104444.31;5114364;28;20024;-82
2023/02/06 05:39:10;;;;;;;0.10;0.10;;;;;;;5.75;71.55;104434.44;5115530;28;20068;-83
2023/02/06 05:41:37;;;;;;;0.10;0.10;;;;;;;5.78;71.37;104436.34;5098543;28;20028;-82
2023/02/06 05:44:03;;;;;;;0.10;0.10;;;;;;;5.76;71.56;104428.38;5086452;28;20055;-81
2023/02/06 05:46:29;;;;;;;0.10;0.10;;;;;;;5.77;72.23;104434.53;5115150;28;20394;-83
2023/02/06 05:48:55;;;;;;;0.10;0.10;;;;;;;5.82;72.57;104443.63;5101135;28;20041;-82
2023/02/06 05:51:21;;;;;;;0.10;0.10;;;;;;;5.88;71.95;104432.53;5114538;27;20034;-82
2023/02/06 05:53:47;;;;;;;1.33;1.20;;;;;;;5.90;71.64;104421.28;5107366;28;20068;-83
2023/02/06 05:56:13;;;;;;;0.25;0.25;;;;;;;5.92;71.95;104426.63;5098251;28;20031;-83
2023/02/06 05:58:39;;;;;;;0.40;0.40;;;;;;;5.92;72.17;104429.25;5091106;28;20078;-82
2023/02/06 06:01:05;;;;;;;0.10;0.10;;;;;;;5.95;72.29;104434.69;5107585;28;20494;-82
2023/02/06 06:03:31;;;;;;;0.10;0.10;;;;;;;5.97;71.71;104428.69;5105126;28;20035;-82
2023/02/06 06:05:58;;;;;;;0.10;0.10;;;;;;;6.00;71.70;104433.25;5111913;28;20054;-82
2023/02/06 06:08:24;;;;;;;0.40;0.40;;;;;;;5.99;71.92;104421.84;5113538;28;20038;-82
2023/02/06 06:10:51;;;;;;;0.10;0.10;;;;;;;6.02;71.79;104429.00;5103464;28;20388;-82
2023/02/06 06:13:17;;;;;;;0.10;0.10;;;;;;;6.00;71.76;104422.75;5102765;28;20058;-81
2023/02/06 06:15:43;;;;;;;4.57;2.17;;;;;;;6.02;71.81;104428.09;5098609;28;20399;-81
2023/02/06 06:18:09;;;;;;;0.10;0.10;;;;;;;6.02;71.86;104434.28;5107253;28;20032;-82
2023/02/06 06:20:36;;;;;;;0.10;0.10;;;;;;;6.04;71.99;104437.88;5095728;28;20040;-81
2023/02/06 06:23:02;;;;;;;0.10;0.10;;;;;;;6.07;71.87;104448.59;5095414;28;20502;-83
2023/02/06 06:25:28;;;;;;;0.10;0.10;;;;;;;6.09;71.83;104449.59;5102102;28;20512;-83
2023/02/06 06:27:54;;;;;;;0.10;0.10;;;;;;;6.10;72.04;104439.97;5120221;28;20032;-81
2023/02/06 06:30:20;;;;;;;0.10;0.10;;;;;;;6.11;72.04;104437.41;5131895;28;20105;-83
2023/02/06 06:32:46;;;;;;;0.10;0.10;;;;;;;6.15;72.14;104442.03;5118252;28;20027;-81
2023/02/06 06:35:12;;;;;;;0.10;0.10;;;;;;;6.17;71.67;104442.13;5100852;28;20111;-82
2023/02/06 06:37:38;;;;;;;0.10;0.10;;;;;;;6.12;72.10;104441.88;5101322;28;20447;-82
2023/02/06 06:40:05;;;;;;;0.10;0.10;;;;;;;6.10;72.33;104439.97;5103868;28;20055;-81
2023/02/06 06:42:31;;;;;;;0.10;0.10;;;;;;;6.14;72.12;104447.22;5100280;28;20121;-83
2023/02/06 06:44:57;;;;;;;0.10;0.10;;;;;;;6.13;72.11;104441.03;5102468;28;20035;-83
2023/02/06 06:47:24;;;;;;;0.10;0.10;;;;;;;6.14;71.97;104448.13;5103295;28;20047;-82
2023/02/06 06:49:50;;;;;;;0.10;0.10;;;;;;;6.16;71.90;104440.31;5108841;28;20478;-82
2023/02/06 06:52:16;;;;;;;0.10;0.10;;;;;;;6.16;72.14;104442.94;5104056;28;20535;-83
2023/02/06 06:54:42;;;;;;;0.10;0.10;;;;;;;6.17;72.01;104444.75;5113483;28;20031;-81
2023/02/06 06:57:08;;;;;;;0.10;0.10;;;;;;;6.14;71.96;104437.59;5109399;28;20062;-83
2023/02/06 06:59:34;;;;;;;0.10;0.10;;;;;;;6.13;71.99;104435.78;5104655;28;20046;-83
2023/02/06 07:02:00;;;;;;;0.10;0.10;;;;;;;6.13;71.88;104440.13;5110859;28;20397;-80
2023/02/06 07:04:29;;;;;;;0.20;0.20;;;;;;;6.14;71.57;104421.81;5123008;28;20035;-82
2023/02/06 07:06:55;;;;;;;0.68;0.68;;;;;;;6.11;71.61;104418.97;5121925;28;20043;-80
2023/02/06 07:09:22;;;;;;;0.10;0.10;;;;;;;6.12;71.69;104420.78;5111182;28;20482;-83
2023/02/06 07:11:48;;;;;;;0.10;0.10;;;;;;;6.18;71.63;104424.59;5097263;28;20019;-82
2023/02/06 07:14:15;;;;;;;0.10;0.10;;;;;;;6.22;71.59;104431.84;5098761;28;20058;-82
2023/02/06 07:16:41;;;;;;;0.10;0.10;;;;;;;6.21;71.56;104428.31;5101879;28;20028;-83
2023/02/06 07:19:08;;;;;;;0.10;0.10;;;;;;;6.22;71.38;104429.19;5100452;28;20509;-82
2023/02/06 07:21:34;;;;;;;0.10;0.10;;;;;;;6.21;71.14;104423.03;5097780;28;20051;-83
2023/02/06 07:24:02;;;;;;;0.10;0.10;;;;;;;6.21;71.57;104423.03;5099278;28;20463;-84
2023/02/06 07:26:28;;;;;;;0.10;0.10;;;;;;;6.18;71.45;104416.69;5106588;28;20032;-83
2023/02/06 07:28:55;;;;;;;0.10;0.10;;;;;;;6.14;71.48;104411.28;5103276;28;20085;-84
2023/02/06 07:31:21;;;;;;;0.10;0.10;;;;;;;6.14;71.22;104410.34;5098620;28;20970;-83
2023/02/06 07:33:47;;;;;;;0.52;0.47;;;;;;;6.13;71.59;104409.44;5110078;28;20061;-83
2023/02/06 07:36:15;;;;;;;0.10;0.10;;;;;;;6.15;71.63;104413.06;5100104;28;20879;-82
2023/02/06 07:38:41;;;;;;;0.10;0.10;;;;;;;6.17;71.46;104410.53;5102425;28;20016;-84
2023/02/06 07:41:07;;;;;;;0.10;0.10;;;;;;;6.18;71.37;104412.34;5099933;28;20025;-84
2023/02/06 07:43:33;;;;;;;0.10;0.10;;;;;;;6.20;71.21;104420.34;5096921;28;20036;-84
2023/02/06 07:46:01;;;;;;;0.10;0.10;;;;;;;6.22;71.44;104413.41;5106261;28;20047;-82
2023/02/06 07:48:28;;;;;;;0.10;0.10;;;;;;;6.24;71.30;104411.78;5106038;28;20034;-83
2023/02/06 07:50:54;;;;;;;0.03;0.03;;;;;;;6.26;71.17;104412.78;5104600;28;20043;-84
2023/02/06 07:53:21;;;;;;;0.10;0.10;;;;;;;6.29;71.20;104405.94;5116811;28;20061;-83
2023/02/06 07:55:47;;;;;;;0.10;0.10;;;;;;;6.32;71.35;104395.56;5111975;28;20032;-82
2023/02/06 07:58:13;;;;;;;0.10;0.10;;;;;;;6.35;71.31;104391.31;5112678;28;20027;-83
2023/02/06 08:00:40;;;;;;;0.10;0.10;;;;;;;6.37;71.34;104392.28;5112462;28;20024;-83
2023/02/06 08:03:07;;;;;;;0.10;0.10;;;;;;;6.41;71.52;104384.63;5116787;28;20099;-80
2023/02/06 08:05:36;;;;;;;0.10;0.10;;;;;;;6.46;71.44;104377.88;5122749;28;20036;-79
2023/02/06 08:08:02;;;;;;;0.10;0.10;;;;;;;6.55;71.55;104379.22;5112354;28;20028;-81
2023/02/06 08:10:28;;;;;;;0.10;0.10;;;;;;;6.60;71.33;104372.44;5100813;28;20549;-82
2023/02/06 08:12:54;;;;;;;0.10;0.10;;;;;;;6.66;71.51;104375.41;5101663;28;20040;-81
2023/02/06 08:15:20;;;;;;;0.10;0.10;;;;;;;6.71;71.41;104379.19;5105972;28;20526;-81
2023/02/06 08:17:46;;;;;;;0.30;0.30;;;;;;;6.74;71.70;104363.56;5103690;28;20035;-80
2023/02/06 08:20:13;;;;;;;0.10;0.10;;;;;;;6.80;71.54;104370.88;5104510;28;20115;-80
2023/02/06 08:22:39;;;;;;;0.30;0.30;;;;;;;6.85;71.24;104365.84;5102915;28;20058;-81
2023/02/06 08:25:05;;;;;;;0.10;0.10;;;;;;;6.88;71.30;104356.38;5102631;28;20070;-82
2023/02/06 08:27:32;;;;;;;0.10;0.10;;;;;;;6.91;71.13;104343.31;5102286;28;20032;-81
2023/02/06 08:29:58;;;;;;;0.10;0.10;;;;;;;6.96;71.50;104339.19;5097524;28;20403;-82
2023/02/06 08:32:25;;;;;;;0.10;0.10;;;;;;;6.99;71.46;104335.84;5097465;28;20024;-81
2023/02/06 08:34:52;;;;;;;0.10;0.10;;;;;;;6.99;71.32;104327.94;5098658;28;20024;-81
2023/02/06 08:37:18;;;;;;;0.10;0.10;;;;;;;6.99;71.51;104321.72;5107525;28;20016;-81
2023/02/06 08:39:44;;;;;;;0.10;0.10;;;;;;;6.99;71.23;104325.28;5099806;28;20519;-83
2023/02/06 08:42:11;;;;;;;0.00;0.00;;;;;;;7.00;71.26;104329.72;5125751;28;20050;-81
2023/02/06 08:44:37;;;;;;;0.10;0.10;;;;;;;7.02;71.27;104320.16;5128499;28;20024;-81
2023/02/06 08:47:03;;;;;;;0.10;0.10;;;;;;;7.04;71.44;104318.50;5108672;28;20040;-82
2023/02/06 08:49:29;;;;;;;0.10;0.10;;;;;;;7.07;71.35;104309.84;5095650;28;20493;-82
2023/02/06 08:51:55;;;;;;;0.15;0.15;;;;;;;7.09;71.26;104303.81;5096828;28;20105;-81
2023/02/06 08:54:22;;;;;;;0.10;0.10;;;;;;;7.12;71.13;104298.69;5097237;28;20031;-83
2023/02/06 08:56:50;;;;;;;0.10;0.10;;;;;;;7.17;70.98;104298.03;5105222;28;20027;-83
2023/02/06 08:59:18;;;;;;;0.10;0.10;;;;;;;7.18;71.15;104305.09;5099496;28;20405;-83
2023/02/06 09:01:45;;;;;;;0.68;0.68;;;;;;;7.18;71.10;104313.94;5098895;28;20041;-81
2023/02/06 09:04:12;;;;;;;0.10;0.10;;;;;;;7.18;71.47;104308.66;5102060;28;20031;-81
2023/02/06 09:06:41;;;;;;;0.35;0.35;;;;;;;7.19;71.28;104302.56;5107205;28;20028;-84
2023/02/06 09:09:09;;;;;;;0.20;0.20;;;;;;;7.20;71.38;104298.19;5101656;28;20114;-81
2023/02/06 09:11:36;;;;;;;0.10;0.10;;;;;;;7.19;70.67;104299.00;5102617;28;20024;-81
2023/02/06 09:14:04;;;;;;;0.10;0.10;;;;;;;7.18;70.96;104303.38;5106585;28;20027;-81
2023/02/06 09:16:32;;;;;;;0.10;0.10;;;;;;;7.19;70.68;104313.09;5103835;28;20028;-80
2023/02/06 09:19:00;;;;;;;0.10;0.10;;;;;;;7.22;70.65;104310.59;5100093;28;20016;-81
2023/02/06 09:21:29;;;;;;;0.20;0.20;;;;;;;7.25;70.93;104307.22;5098288;28;20115;-82
2023/02/06 09:23:58;;;;;;;0.10;0.10;;;;;;;7.28;71.07;104308.28;5099429;28;20024;-82
2023/02/06 09:26:27;;;;;;;0.10;0.10;;;;;;;7.30;71.08;104308.34;5099075;28;20058;-82
2023/02/06 09:28:56;;;;;;;0.10;0.10;;;;;;;7.36;71.32;104307.75;5099710;28;20028;-81
2023/02/06 09:31:23;;;;;;;0.10;0.10;;;;;;;7.40;71.27;104304.44;5097390;28;20068;-82
2023/02/06 09:33:49;;;;;;;0.10;0.10;;;;;;;7.44;71.46;104307.31;5097516;28;20028;-83
2023/02/06 09:36:17;;;;;;;0.10;0.10;;;;;;;7.45;70.88;104301.19;5099257;28;20028;-81
2023/02/06 09:38:46;;;;;;;0.17;0.17;;;;;;;7.51;71.02;104297.03;5116352;28;20035;-79
2023/02/06 09:41:34;;;;;;;0.30;0.30;;;;;;;7.50;71.20;104301.44;5120921;28;20024;-78
2023/02/06 09:44:23;;;;;;;0.10;0.10;;;;;;;7.55;71.30;104312.19;5102851;28;20036;-81
2023/02/06 09:46:57;;;;;;;2.80;2.60;;;;;;;7.56;71.22;104314.94;5101737;28;20048;-80
2023/02/06 09:49:34;;;;;;;0.10;0.10;;;;;;;7.60;71.45;104318.59;5103311;28;20511;-81
2023/02/06 09:52:18;;;;;;;0.20;0.20;;;;;;;7.65;71.63;104327.66;5100252;28;20095;-83
2023/02/06 09:55:24;;;;;;;0.20;0.20;;;;;;;7.71;71.38;104327.97;5110170;28;20020;-82
2023/02/06 09:58:30;;;;;;;0.03;0.03;;;;;;;7.76;71.29;104337.00;5102355;28;20028;-82
2023/02/06 10:01:19;;;;;;;0.08;0.08;;;;;;;7.85;71.20;104346.16;5112158;28;20063;-82
2023/02/06 10:07:09;;;;;;;0.10;0.10;;;;;;;7.91;71.29;104357.03;5073793;28;20402;-83
2023/02/06 10:10:00;;;;;;;0.10;0.10;;;;;;;7.99;70.75;104353.03;5067730;28;20115;-83
2023/02/06 10:12:34;;;;;;;0.10;0.10;;;;;;;7.97;70.45;104357.31;5064353;28;20031;-82
2023/02/06 10:15:24;;;;;;;0.10;0.10;;;;;;;7.98;70.18;104361.78;5052660;28;20021;-83
2023/02/06 10:17:57;;;;;;;0.10;0.10;;;;;;;7.99;70.81;104360.94;5057564;28;20086;-80
2023/02/06 10:20:59;;;;;;;0.10;0.10;;;;;;;8.05;70.29;104361.25;5076106;28;20056;-79
2023/02/06 10:26:11;;;;;;;0.10;0.10;;;;;;;8.06;69.63;104367.41;5104439;27;20411;-81
2023/02/06 10:28:41;;;;;;;0.10;0.10;;;;;;;8.12;70.02;104366.81;5089893;28;20034;-83
2023/02/06 10:37:35;;;;;;;0.10;0.10;;;;;;;8.60;70.99;104343.50;5070214;27;1902348;-82
2023/02/06 10:40:34;;;;;;;0.20;0.20;;;;;;;8.76;70.13;104325.66;5111474;28;20039;-81
2023/02/06 10:43:13;;;;;;;0.22;0.22;;;;;;;8.87;70.06;104334.97;5112688;28;20096;-82
2023/02/06 10:48:45;;;;;;;0.10;0.10;;;;;;;9.10;69.53;104327.09;5088094;27;20145;-84
2023/02/06 10:51:28;;;;;;;0.10;0.10;;;;;;;9.22;69.39;104317.03;5070655;28;20025;-80
2023/02/06 10:54:00;;;;;;;0.20;0.20;;;;;;;9.29;69.48;104316.44;5052153;28;20028;-80
2023/02/06 10:56:34;;;;;;;0.10;0.10;;;;;;;9.39;69.19;104307.16;5055830;28;20109;-80
2023/02/06 10:59:40;;;;;;;0.10;0.10;;;;;;;9.54;68.58;104307.78;5052473;28;20461;-82
2023/02/06 11:05:04;;;;;;;0.10;0.10;;;;;;;9.66;67.90;104307.34;5094496;27;1928132;-84
2023/02/06 11:10:11;;;;;;;0.10;0.10;;;;;;;9.75;65.81;104311.22;5119532;27;20130;-78
2023/02/06 11:12:41;;;;;;;0.10;0.10;;;;;;;9.70;65.40;104316.31;5103741;28;20025;-80
2023/02/06 11:17:54;;;;;;;0.10;0.10;;;;;;;9.80;65.95;104307.88;5116622;27;20356;-79
2023/02/06 11:20:24;;;;;;;0.20;0.20;;;;;;;9.90;65.88;104314.44;5110545;28;20523;-79
2023/02/06 11:22:50;;;;;;;0.10;0.10;;;;;;;9.97;65.75;104311.19;5112675;28;20028;-80
2023/02/06 11:25:26;;;;;;;10.43;2.33;;;;;;;10.07;66.22;104311.53;5106696;28;20056;-79
2023/02/06 11:27:53;;;;;;;0.10;0.10;;;;;;;10.09;65.89;104305.44;5109575;28;20058;-80
2023/02/06 11:30:32;;;;;;;2.95;1.38;;;;;;;10.23;66.06;104302.41;5107944;28;20043;-80
2023/02/06 11:33:04;;;;;;;0.10;0.10;;;;;;;10.28;65.01;104307.06;5111473;28;20084;-81
2023/02/06 11:38:14;;;;;;;0.40;0.40;;;;;;;10.32;65.13;104295.72;5117912;27;1154066;-79
2023/02/06 11:40:40;;;;;;;0.57;0.57;;;;;;;10.53;64.36;104297.38;5151612;27;20024;-79
2023/02/06 11:49:00;;;;;;;0.10;0.10;;;;;;;10.78;62.14;104293.84;5131121;27;20354;-81
2023/02/06 11:51:45;;;;;;;0.73;0.73;;;;;;;10.80;61.58;104285.91;5127779;28;20036;-79
2023/02/06 11:54:31;;;;;;;0.10;0.10;;;;;;;10.71;61.22;104272.34;5126544;28;20016;-78
2023/02/06 11:59:48;;;;;;;0.10;0.10;;;;;;;10.65;62.98;104265.06;5122463;27;1154919;-79
2023/02/06 12:02:32;;;;;;;0.10;0.10;;;;;;;10.86;62.22;104264.91;5141792;27;20028;-80
2023/02/06 12:05:05;;;;;;;0.10;0.10;;;;;;;10.94;61.30;104268.72;5114249;28;20072;-81
2023/02/06 12:07:36;;;;;;;3.83;1.85;;;;;;;11.10;61.83;104269.22;5107467;28;20506;-82
2023/02/06 12:10:14;;;;;;;0.95;0.95;;;;;;;11.16;60.22;104274.75;5112511;28;20031;-82
2023/02/06 12:13:02;;;;;;;0.20;0.20;;;;;;;11.23;61.97;104271.44;5111586;28;20031;-83
2023/02/06 12:18:17;;;;;;;0.10;0.10;;;;;;;11.50;60.70;104254.56;5073359;28;20401;-82
2023/02/06 12:20:51;;;;;;;0.25;0.25;;;;;;;11.65;58.46;104255.06;5069660;28;20071;-82
2023/02/06 12:26:06;;;;;;;0.10;0.10;;;;;;;11.68;60.93;104253.34;5110055;27;20396;-81
2023/02/06 12:28:56;;;;;;;0.10;0.10;;;;;;;11.58;60.63;104250.41;5102640;28;20042;-82
2023/02/06 12:31:33;;;;;;;0.15;0.15;;;;;;;11.38;59.80;104243.59;5090991;28;20046;-82
2023/02/06 12:34:20;;;;;;;0.73;0.73;;;;;;;11.24;57.64;104236.09;5104282;28;20077;-83
2023/02/06 12:36:59;;;;;;;0.10;0.10;;;;;;;11.22;59.82;104229.81;5090576;28;20024;-82
2023/02/06 12:39:30;;;;;;;0.10;0.10;;;;;;;11.25;59.80;104235.25;5096297;28;20434;-83
2023/02/06 12:42:13;;;;;;;0.10;0.10;;;;;;;11.28;59.76;104227.34;5100817;28;20024;-83
2023/02/06 12:44:50;;;;;;;0.10;0.10;;;;;;;11.25;59.48;104227.28;5090617;28;20353;-84